createdAt,value
2022-09-30T00:01:49.374Z,94050.53
2022-09-30T00:04:57.754Z,94053.56
2022-09-30T00:08:05.893Z,94052.38
2022-09-30T00:11:17.729Z,94060.13
2022-09-30T00:14:27.356Z,94054.59
2022-09-30T00:17:35.840Z,94057.84
2022-09-30T00:20:44.650Z,94063.97
2022-09-30T00:23:53.535Z,94069.06
2022-09-30T00:27:01.653Z,94066.44
2022-09-30T00:30:12.651Z,94067.03
2022-09-30T00:33:21.069Z,94063.97
2022-09-30T00:36:29.457Z,94069.47
2022-09-30T00:39:37.972Z,94060.72
2022-09-30T00:42:46.514Z,94061.13
2022-09-30T00:46:00.675Z,94072.13
2022-09-30T00:49:17.623Z,94063.59
2022-09-30T00:52:26.652Z,94075.00
2022-09-30T00:55:50.046Z,94070.28
2022-09-30T00:59:06.543Z,94073.16
2022-09-30T01:02:16.645Z,94075.78
2022-09-30T01:05:28.083Z,94080.28
2022-09-30T01:08:40.740Z,94080.28
2022-09-30T01:11:49.658Z,94072.50
2022-09-30T01:15:00.623Z,94077.19
2022-09-30T01:18:27.447Z,94071.69
2022-09-30T01:22:10.709Z,94065.81
2022-09-30T01:26:03.511Z,94077.63
2022-09-30T01:29:56.178Z,94074.16
2022-09-30T01:33:22.617Z,94083.53
2022-09-30T01:36:49.424Z,94080.25
2022-09-30T01:40:13.023Z,94096.56
2022-09-30T01:43:35.076Z,94107.59
2022-09-30T01:46:49.054Z,94111.66
2022-09-30T01:50:06.549Z,94124.13
2022-09-30T01:53:25.174Z,94110.66
2022-09-30T01:56:43.525Z,94108.41
2022-09-30T01:59:59.150Z,94106.38
2022-09-30T02:03:17.003Z,94096.56
2022-09-30T02:06:36.658Z,94105.78
2022-09-30T02:09:54.906Z,94109.44
2022-09-30T02:13:14.277Z,94106.16
2022-09-30T02:17:02.778Z,94103.53
2022-09-30T02:20:18.358Z,94108.81
2022-09-30T02:23:34.578Z,94104.53
2022-09-30T02:26:47.724Z,94105.34
2022-09-30T02:30:03.982Z,94107.59
2022-09-30T02:33:19.880Z,94105.16
2022-09-30T02:36:35.240Z,94101.91
2022-09-30T02:39:51.810Z,94107.00
2022-09-30T02:43:00.212Z,94102.91
2022-09-30T02:46:19.918Z,94102.31
2022-09-30T02:49:38.148Z,94104.72
2022-09-30T02:53:01.808Z,94109.19
2022-09-30T02:56:28.506Z,94107.38
2022-09-30T02:59:36.768Z,94112.47
2022-09-30T03:02:45.321Z,94121.41
2022-09-30T03:05:54.080Z,94124.25
2022-09-30T03:09:02.359Z,94123.84
2022-09-30T03:12:35.654Z,94128.72
2022-09-30T03:16:01.826Z,94140.94
2022-09-30T03:19:37.325Z,94140.31
2022-09-30T03:28:08.083Z,94141.78
2022-09-30T03:31:31.922Z,94150.69
2022-09-30T03:35:03.357Z,94149.47
2022-09-30T03:38:25.627Z,94156.97
2022-09-30T03:41:43.915Z,94167.19
2022-09-30T03:45:06.054Z,94172.28
2022-09-30T03:48:17.194Z,94180.03
2022-09-30T03:51:25.931Z,94179.22
2022-09-30T03:54:38.281Z,94184.91
2022-09-30T03:57:46.760Z,94179.22
2022-09-30T04:00:57.312Z,94185.16
2022-09-30T04:04:09.985Z,94187.78
2022-09-30T04:07:18.753Z,94183.69
2022-09-30T04:10:26.999Z,94187.53
2022-09-30T04:13:35.237Z,94183.88
2022-09-30T04:16:44.890Z,94179.59
2022-09-30T04:19:53.133Z,94191.34
2022-09-30T04:23:02.438Z,94194.63
2022-09-30T04:26:14.934Z,94193.44
2022-09-30T04:29:23.243Z,94202.19
2022-09-30T04:32:33.040Z,94200.56
2022-09-30T04:35:41.469Z,94201.97
2022-09-30T04:38:49.935Z,94200.56
2022-09-30T04:41:58.926Z,94197.47
2022-09-30T04:45:08.467Z,94203.56
2022-09-30T04:48:18.753Z,94200.34
2022-09-30T04:51:27.567Z,94207.06
2022-09-30T04:54:35.774Z,94213.59
2022-09-30T04:57:45.539Z,94224.38
2022-09-30T05:00:54.411Z,94223.34
2022-09-30T05:04:04.330Z,94227.22
2022-09-30T05:07:12.971Z,94227.59
2022-09-30T05:10:24.794Z,94226.78
2022-09-30T05:13:36.936Z,94228.19
2022-09-30T05:16:45.301Z,94229.00
2022-09-30T05:19:54.920Z,94229.84
2022-09-30T05:23:03.331Z,94228.44
2022-09-30T05:26:13.153Z,94228.84
2022-09-30T05:29:21.449Z,94235.38
2022-09-30T05:32:31.740Z,94254.72
2022-09-30T05:35:43.287Z,94251.66
2022-09-30T05:38:52.970Z,94243.94
2022-09-30T05:42:01.243Z,94251.31
2022-09-30T05:45:10.758Z,94256.66
2022-09-30T05:48:18.949Z,94253.03
2022-09-30T05:51:28.594Z,94254.47
2022-09-30T05:54:37.021Z,94265.09
2022-09-30T05:57:49.057Z,94269.75
2022-09-30T06:01:00.466Z,94275.66
2022-09-30T06:04:13.870Z,94275.03
2022-09-30T06:07:23.510Z,94285.72
2022-09-30T06:10:31.805Z,94283.16
2022-09-30T06:13:41.564Z,94299.50
2022-09-30T06:16:49.817Z,94309.56
2022-09-30T06:19:58.181Z,94301.78
2022-09-30T06:23:07.993Z,94302.56
2022-09-30T06:26:16.546Z,94298.91
2022-09-30T06:29:25.614Z,94292.91
2022-09-30T06:32:34.052Z,94301.84
2022-09-30T06:35:43.958Z,94305.50
2022-09-30T06:38:54.483Z,94307.56
2022-09-30T06:42:02.990Z,94311.97
2022-09-30T06:45:23.446Z,94311.75
2022-09-30T06:48:38.649Z,94308.13
2022-09-30T06:51:47.218Z,94320.56
2022-09-30T06:54:57.481Z,94317.97
2022-09-30T06:58:09.360Z,94319.44
2022-09-30T07:01:18.041Z,94326.22
2022-09-30T07:04:26.607Z,94321.50
2022-09-30T07:07:36.649Z,94338.59
2022-09-30T07:10:48.666Z,94339.53
2022-09-30T07:13:57.518Z,94335.00
2022-09-30T07:17:07.692Z,94338.88
2022-09-30T07:20:16.229Z,94338.63
2022-09-30T07:23:27.170Z,94343.28
2022-09-30T07:26:37.234Z,94333.34
2022-09-30T07:30:07.571Z,94335.66
2022-09-30T07:33:16.649Z,94339.63
2022-09-30T07:36:32.775Z,94330.88
2022-09-30T07:39:41.969Z,94330.59
2022-09-30T07:42:51.605Z,94320.56
2022-09-30T07:46:00.597Z,94318.03
2022-09-30T07:49:15.040Z,94331.25
2022-09-30T07:52:23.275Z,94336.69
2022-09-30T07:55:31.639Z,94338.59
2022-09-30T07:58:42.875Z,94345.19
2022-09-30T08:01:52.093Z,94338.88
2022-09-30T08:05:00.393Z,94348.13
2022-09-30T08:08:08.756Z,94351.28
2022-09-30T08:11:17.066Z,94357.00
2022-09-30T08:14:29.119Z,94362.16
2022-09-30T08:17:37.353Z,94364.16
2022-09-30T08:20:46.027Z,94363.16
2022-09-30T08:23:54.879Z,94372.41
2022-09-30T08:27:03.700Z,94380.13
2022-09-30T08:30:13.826Z,94369.22
2022-09-30T08:33:22.018Z,94374.94
2022-09-30T08:36:32.201Z,94383.66
2022-09-30T08:39:42.428Z,94384.00
2022-09-30T08:43:15.635Z,94378.72
2022-09-30T08:46:42.396Z,94372.00
2022-09-30T08:50:09.398Z,94382.88
2022-09-30T08:53:27.697Z,94398.13
2022-09-30T08:56:38.123Z,94405.19
2022-09-30T08:59:50.670Z,94406.84
2022-09-30T09:03:03.152Z,94413.22
2022-09-30T09:06:28.123Z,94416.97
2022-09-30T09:09:59.909Z,94421.63
2022-09-30T09:13:21.134Z,94425.22
2022-09-30T09:16:38.215Z,94422.09
2022-09-30T09:20:04.076Z,94434.19
2022-09-30T09:23:15.223Z,94422.78
2022-09-30T09:26:26.924Z,94426.97
2022-09-30T09:29:48.170Z,94424.03
2022-09-30T09:33:02.186Z,94438.25
2022-09-30T09:36:33.562Z,94442.56
2022-09-30T09:40:09.276Z,94447.53
2022-09-30T09:43:30.706Z,94447.50
2022-09-30T09:46:47.825Z,94451.88
2022-09-30T09:50:01.040Z,94452.13
2022-09-30T09:53:38.959Z,94440.88
2022-09-30T09:56:47.249Z,94435.66
2022-09-30T09:59:58.502Z,94429.28
2022-09-30T10:03:18.327Z,94431.91
2022-09-30T10:06:26.499Z,94434.25
2022-09-30T10:09:39.381Z,94424.97
2022-09-30T10:12:48.046Z,94432.75
2022-09-30T10:15:59.273Z,94433.00
2022-09-30T10:19:23.609Z,94441.63
2022-09-30T10:22:33.861Z,94441.50
2022-09-30T10:26:12.554Z,94442.41
2022-09-30T10:29:31.658Z,94440.56
2022-09-30T10:32:39.951Z,94445.00
2022-09-30T10:36:01.936Z,94435.91
2022-09-30T10:39:23.292Z,94433.88
2022-09-30T10:42:36.695Z,94440.16
2022-09-30T10:45:56.640Z,94442.44
2022-09-30T10:49:29.855Z,94445.00
2022-09-30T10:52:44.587Z,94454.41
2022-09-30T10:55:54.727Z,94466.34
2022-09-30T10:59:06.956Z,94468.69
2022-09-30T11:02:29.136Z,94465.13
2022-09-30T11:05:43.951Z,94471.56
2022-09-30T11:08:59.894Z,94481.75
2022-09-30T11:12:21.576Z,94485.38
2022-09-30T11:15:41.700Z,94486.41
2022-09-30T11:19:01.208Z,94487.44
2022-09-30T11:22:33.192Z,94479.59
2022-09-30T11:25:52.529Z,94468.97
2022-09-30T11:29:43.627Z,94483.59
2022-09-30T11:33:17.441Z,94480.59
2022-09-30T11:36:43.587Z,94479.63
2022-09-30T11:40:42.553Z,94474.19
2022-09-30T11:44:05.724Z,94485.97
2022-09-30T11:47:35.210Z,94478.63
2022-09-30T11:51:06.529Z,94495.22
2022-09-30T11:54:39.844Z,94482.91
2022-09-30T11:58:08.397Z,94482.09
2022-09-30T12:01:33.671Z,94477.81
2022-09-30T12:04:45.155Z,94486.06
2022-09-30T12:08:04.959Z,94490.13
2022-09-30T12:11:20.717Z,94488.28
2022-09-30T12:14:37.074Z,94488.75
2022-09-30T12:17:50.314Z,94495.72
2022-09-30T12:21:04.085Z,94494.00
2022-09-30T12:24:24.357Z,94501.84
2022-09-30T12:27:42.444Z,94491.00
2022-09-30T12:31:00.414Z,94498.69
2022-09-30T12:34:35.740Z,94494.94
2022-09-30T12:38:07.991Z,94488.88
2022-09-30T12:41:49.090Z,94490.06
2022-09-30T12:45:38.162Z,94495.84
2022-09-30T12:48:53.560Z,94482.66
2022-09-30T12:52:09.125Z,94488.97
2022-09-30T12:55:31.245Z,94479.38
2022-09-30T12:58:48.355Z,94492.25
2022-09-30T13:01:58.893Z,94493.69
2022-09-30T13:05:50.004Z,94498.91
2022-09-30T13:09:22.299Z,94495.72
2022-09-30T13:12:44.110Z,94485.84
2022-09-30T13:15:56.216Z,94495.50
2022-09-30T13:19:05.069Z,94479.31
2022-09-30T13:22:58.685Z,94488.59
2022-09-30T13:26:43.209Z,94480.09
2022-09-30T13:29:51.466Z,94472.66
2022-09-30T13:34:04.641Z,94473.16
2022-09-30T13:37:40.996Z,94471.28
2022-09-30T13:41:02.417Z,94480.38
2022-09-30T13:44:17.887Z,94468.50
2022-09-30T13:47:34.139Z,94479.31
2022-09-30T13:50:52.641Z,94480.94
2022-09-30T13:54:08.426Z,94475.00
2022-09-30T13:57:25.367Z,94482.22
2022-09-30T14:00:53.199Z,94492.84
2022-09-30T14:04:30.526Z,94486.94
2022-09-30T14:08:03.059Z,94494.34
2022-09-30T14:11:33.655Z,94499.69
2022-09-30T14:15:25.660Z,94511.81
2022-09-30T14:19:23.348Z,94515.84
2022-09-30T14:22:33.061Z,94514.34
2022-09-30T14:25:56.994Z,94500.59
2022-09-30T14:29:18.181Z,94495.28
2022-09-30T14:32:35.387Z,94488.72
2022-09-30T14:35:44.759Z,94490.13
2022-09-30T14:38:59.890Z,94491.06
2022-09-30T14:42:25.566Z,94495.69
2022-09-30T14:45:38.760Z,94496.13
2022-09-30T14:48:50.615Z,94500.06
2022-09-30T14:52:00.460Z,94497.41
2022-09-30T14:55:26.840Z,94500.28
2022-09-30T14:58:43.227Z,94488.41
2022-09-30T15:01:56.176Z,94502.59
2022-09-30T15:05:06.130Z,94506.34
2022-09-30T15:08:20.064Z,94509.00
2022-09-30T15:11:29.940Z,94514.34
2022-09-30T15:14:48.597Z,94516.44
2022-09-30T15:17:56.869Z,94514.06
2022-09-30T15:21:13.529Z,94516.19
2022-09-30T15:24:25.426Z,94508.94
2022-09-30T15:27:36.987Z,94511.50
2022-09-30T15:30:46.837Z,94519.03
2022-09-30T15:34:08.474Z,94521.53
2022-09-30T15:37:24.400Z,94507.66
2022-09-30T15:40:49.923Z,94525.75
2022-09-30T15:44:00.501Z,94522.53
2022-09-30T15:47:12.158Z,94534.59
2022-09-30T15:50:40.303Z,94535.22
2022-09-30T15:53:50.065Z,94529.38
2022-09-30T15:57:00.242Z,94540.22
2022-09-30T16:00:34.598Z,94538.59
2022-09-30T16:03:54.263Z,94543.97
2022-09-30T16:07:10.771Z,94549.72
2022-09-30T16:10:22.023Z,94550.59
2022-09-30T16:13:33.374Z,94561.72
2022-09-30T16:16:49.728Z,94562.75
2022-09-30T16:20:01.404Z,94557.28
2022-09-30T16:23:31.298Z,94572.56
2022-09-30T16:26:45.610Z,94574.63
2022-09-30T16:29:53.973Z,94579.28
2022-09-30T16:33:07.360Z,94584.63
2022-09-30T16:36:15.875Z,94581.03
2022-09-30T16:39:24.476Z,94588.44
2022-09-30T16:42:33.010Z,94579.47
2022-09-30T16:45:42.448Z,94592.19
2022-09-30T16:48:52.537Z,94589.94
2022-09-30T16:52:00.972Z,94594.06
2022-09-30T16:55:10.070Z,94589.44
2022-09-30T16:58:19.623Z,94597.94
2022-09-30T17:01:28.600Z,94607.72
2022-09-30T17:04:39.069Z,94601.47
2022-09-30T17:07:48.924Z,94603.94
2022-09-30T17:10:57.825Z,94617.91
2022-09-30T17:14:07.020Z,94611.38
2022-09-30T17:17:15.510Z,94611.69
2022-09-30T17:20:27.442Z,94619.75
2022-09-30T17:23:35.700Z,94624.06
2022-09-30T17:26:44.494Z,94622.44
2022-09-30T17:29:52.881Z,94626.13
2022-09-30T17:33:01.349Z,94629.06
2022-09-30T17:36:14.118Z,94624.94
2022-09-30T17:39:22.568Z,94633.56
2022-09-30T17:42:44.740Z,94630.28
2022-09-30T17:45:55.640Z,94619.63
2022-09-30T17:49:04.067Z,94623.56
2022-09-30T17:52:14.895Z,94633.41
2022-09-30T17:55:23.651Z,94632.19
2022-09-30T17:58:32.155Z,94632.16
2022-09-30T18:01:41.877Z,94634.84
2022-09-30T18:04:50.570Z,94631.97
2022-09-30T18:08:00.604Z,94628.50
2022-09-30T18:11:09.141Z,94619.66
2022-09-30T18:14:17.844Z,94613.53
2022-09-30T18:17:26.721Z,94615.66
2022-09-30T18:20:35.062Z,94628.00
2022-09-30T18:23:44.794Z,94632.97
2022-09-30T18:26:53.552Z,94634.41
2022-09-30T18:30:02.761Z,94629.44
2022-09-30T18:33:12.034Z,94646.03
2022-09-30T18:36:21.212Z,94668.19
2022-09-30T18:39:31.684Z,94668.22
2022-09-30T18:42:40.531Z,94669.78
2022-09-30T18:45:56.356Z,94678.69
2022-09-30T18:49:05.747Z,94687.50
2022-09-30T18:52:14.762Z,94683.34
2022-09-30T18:55:25.055Z,94687.03
2022-09-30T18:58:33.524Z,94680.66
2022-09-30T19:01:42.687Z,94687.84
2022-09-30T19:04:51.436Z,94682.97
2022-09-30T19:08:00.038Z,94671.09
2022-09-30T19:11:15.768Z,94671.72
2022-09-30T19:14:24.931Z,94667.19
2022-09-30T19:17:33.347Z,94667.31
2022-09-30T19:20:41.998Z,94676.38
2022-09-30T19:23:50.543Z,94664.34
2022-09-30T19:27:00.475Z,94667.88
2022-09-30T19:30:11.873Z,94671.78
2022-09-30T19:33:27.311Z,94661.94
2022-09-30T19:36:48.435Z,94665.41
2022-09-30T19:40:07.102Z,94660.72
2022-09-30T19:43:23.156Z,94661.69
2022-09-30T19:46:31.874Z,94660.47
2022-09-30T19:49:40.598Z,94660.06
2022-09-30T19:52:56.939Z,94659.66
2022-09-30T19:56:10.335Z,94652.47
2022-09-30T19:59:20.329Z,94650.84
2022-09-30T20:02:28.810Z,94646.13
2022-09-30T20:05:37.454Z,94643.66
2022-09-30T20:08:52.556Z,94638.75
2022-09-30T20:12:01.285Z,94635.25
2022-09-30T20:15:29.619Z,94647.34
2022-09-30T20:18:40.795Z,94653.31
2022-09-30T20:21:54.952Z,94648.41
2022-09-30T20:25:03.468Z,94648.97
2022-09-30T20:28:12.017Z,94654.13
2022-09-30T20:31:21.814Z,94657.19
2022-09-30T20:34:30.265Z,94652.09
2022-09-30T20:37:41.025Z,94646.84
2022-09-30T20:40:55.410Z,94648.88
2022-09-30T20:44:04.808Z,94644.97
2022-09-30T20:47:15.621Z,94642.13
2022-09-30T20:50:37.285Z,94641.06
2022-09-30T20:53:52.420Z,94643.34
2022-09-30T20:57:08.266Z,94645.81
2022-09-30T21:00:18.401Z,94653.19
2022-09-30T21:03:29.554Z,94639.88
2022-09-30T21:06:37.885Z,94653.13
2022-09-30T21:09:46.246Z,94659.47
2022-09-30T21:12:55.374Z,94660.94
2022-09-30T21:16:07.748Z,94666.47
2022-09-30T21:19:18.869Z,94673.63
2022-09-30T21:22:27.239Z,94676.31
2022-09-30T21:25:35.537Z,94681.00
2022-09-30T21:28:48.808Z,94678.59
2022-09-30T21:31:57.989Z,94684.53
2022-09-30T21:35:08.884Z,94685.53
2022-09-30T21:38:18.103Z,94684.13
2022-09-30T21:41:26.441Z,94683.09
2022-09-30T21:44:34.689Z,94688.66
2022-09-30T21:51:30.699Z,94686.97
2022-09-30T21:54:40.642Z,94675.69
2022-09-30T21:57:49.767Z,94669.97
2022-09-30T22:01:01.552Z,94666.91
2022-09-30T22:04:10.619Z,94668.78
2022-09-30T22:07:23.633Z,94677.84
2022-09-30T22:10:32.025Z,94680.31
2022-09-30T22:13:41.570Z,94679.88
2022-09-30T22:16:50.027Z,94679.69
2022-09-30T22:19:58.493Z,94690.50
2022-09-30T22:23:08.119Z,94686.84
2022-09-30T22:26:19.598Z,94689.72
2022-09-30T22:29:28.712Z,94702.81
2022-09-30T22:32:37.150Z,94699.97
2022-09-30T22:36:03.234Z,94699.94
2022-09-30T22:39:13.304Z,94700.16
2022-09-30T22:42:21.575Z,94696.66
2022-09-30T22:45:30.215Z,94706.94
2022-09-30T22:48:38.785Z,94708.78
2022-09-30T22:51:47.840Z,94707.13
2022-09-30T22:54:58.095Z,94706.91
2022-09-30T22:58:06.507Z,94716.31
2022-09-30T23:01:15.280Z,94713.28
2022-09-30T23:04:26.055Z,94716.31
2022-09-30T23:07:34.485Z,94719.41
2022-09-30T23:10:51.120Z,94716.72
2022-09-30T23:14:00.518Z,94725.16
2022-09-30T23:17:08.672Z,94727.00
2022-09-30T23:20:17.784Z,94733.13
2022-09-30T23:23:27.686Z,94734.78
2022-09-30T23:26:38.531Z,94737.22
2022-09-30T23:29:47.733Z,94741.94
2022-09-30T23:32:57.424Z,94740.47
2022-09-30T23:36:09.481Z,94755.03
2022-09-30T23:39:21.228Z,94765.06
2022-09-30T23:42:32.235Z,94760.97
2022-09-30T23:45:40.993Z,94765.69
2022-09-30T23:48:49.701Z,94772.44
2022-09-30T23:51:58.288Z,94771.84
2022-09-30T23:55:08.447Z,94773.25
2022-09-30T23:58:18.396Z,94783.09
